sensor_id;sensor_type;location;lat;lon;timestamp;P1;durP1;ratioP1;P2;durP2;ratioP2
75620;SDS011;64574;48.506;-2.750;2023-11-21T00:01:53;6.25;;;1.05;;
75620;SDS011;64574;48.506;-2.750;2023-11-21T00:04:20;11.18;;;1.95;;
75620;SDS011;64574;48.506;-2.750;2023-11-21T00:06:46;6.65;;;1.70;;
75620;SDS011;64574;48.506;-2.750;2023-11-21T00:09:15;7.93;;;1.40;;
75620;SDS011;64574;48.506;-2.750;2023-11-21T00:11:42;5.65;;;1.17;;
75620;SDS011;64574;48.506;-2.750;2023-11-21T00:14:09;4.70;;;1.10;;
75620;SDS011;64574;48.506;-2.750;2023-11-21T00:16:36;10.93;;;1.30;;
75620;SDS011;64574;48.506;-2.750;2023-11-21T00:19:02;5.75;;;1.17;;
75620;SDS011;64574;48.506;-2.750;2023-11-21T00:21:27;5.43;;;1.25;;
75620;SDS011;64574;48.506;-2.750;2023-11-21T00:23:53;5.85;;;1.00;;
75620;SDS011;64574;48.506;-2.750;2023-11-21T00:26:18;4.93;;;1.10;;
75620;SDS011;64574;48.506;-2.750;2023-11-21T00:28:44;6.72;;;1.70;;
75620;SDS011;64574;48.506;-2.750;2023-11-21T00:31:10;9.00;;;1.45;;
75620;SDS011;64574;48.506;-2.750;2023-11-21T00:33:36;7.78;;;1.08;;
75620;SDS011;64574;48.506;-2.750;2023-11-21T00:36:01;10.65;;;1.33;;
75620;SDS011;64574;48.506;-2.750;2023-11-21T00:38:27;10.77;;;1.50;;
75620;SDS011;64574;48.506;-2.750;2023-11-21T00:40:53;9.98;;;0.90;;
75620;SDS011;64574;48.506;-2.750;2023-11-21T00:43:24;6.38;;;0.95;;
75620;SDS011;64574;48.506;-2.750;2023-11-21T00:45:49;7.90;;;1.02;;
75620;SDS011;64574;48.506;-2.750;2023-11-21T00:48:16;6.13;;;1.00;;
75620;SDS011;64574;48.506;-2.750;2023-11-21T00:50:43;7.28;;;1.15;;
75620;SDS011;64574;48.506;-2.750;2023-11-21T00:53:09;5.95;;;0.95;;
75620;SDS011;64574;48.506;-2.750;2023-11-21T00:55:35;3.78;;;0.88;;
75620;SDS011;64574;48.506;-2.750;2023-11-21T00:58:01;5.78;;;1.00;;
75620;SDS011;64574;48.506;-2.750;2023-11-21T01:00:29;10.23;;;1.17;;
75620;SDS011;64574;48.506;-2.750;2023-11-21T01:02:55;8.02;;;1.13;;
75620;SDS011;64574;48.506;-2.750;2023-11-21T01:05:21;7.70;;;1.30;;
75620;SDS011;64574;48.506;-2.750;2023-11-21T01:07:47;6.47;;;1.08;;
75620;SDS011;64574;48.506;-2.750;2023-11-21T01:10:12;10.02;;;1.67;;
75620;SDS011;64574;48.506;-2.750;2023-11-21T01:12:38;7.68;;;1.10;;
75620;SDS011;64574;48.506;-2.750;2023-11-21T01:15:04;8.98;;;1.17;;
75620;SDS011;64574;48.506;-2.750;2023-11-21T01:17:34;6.38;;;1.23;;
75620;SDS011;64574;48.506;-2.750;2023-11-21T01:20:00;3.40;;;0.90;;
75620;SDS011;64574;48.506;-2.750;2023-11-21T01:22:27;5.07;;;0.95;;
75620;SDS011;64574;48.506;-2.750;2023-11-21T01:24:53;7.30;;;1.02;;
75620;SDS011;64574;48.506;-2.750;2023-11-21T01:27:19;6.03;;;1.08;;
75620;SDS011;64574;48.506;-2.750;2023-11-21T01:29:45;8.27;;;1.25;;
75620;SDS011;64574;48.506;-2.750;2023-11-21T01:32:10;5.85;;;1.00;;
75620;SDS011;64574;48.506;-2.750;2023-11-21T01:34:36;9.02;;;1.10;;
75620;SDS011;64574;48.506;-2.750;2023-11-21T01:37:02;2.78;;;0.80;;
75620;SDS011;64574;48.506;-2.750;2023-11-21T01:39:29;5.72;;;1.00;;
75620;SDS011;64574;48.506;-2.750;2023-11-21T01:41:56;7.95;;;1.08;;
75620;SDS011;64574;48.506;-2.750;2023-11-21T01:44:26;4.25;;;0.80;;
75620;SDS011;64574;48.506;-2.750;2023-11-21T01:46:51;6.70;;;1.33;;
75620;SDS011;64574;48.506;-2.750;2023-11-21T01:49:18;6.10;;;0.82;;
75620;SDS011;64574;48.506;-2.750;2023-11-21T01:51:46;6.00;;;1.00;;
75620;SDS011;64574;48.506;-2.750;2023-11-21T01:54:15;5.95;;;1.10;;
75620;SDS011;64574;48.506;-2.750;2023-11-21T01:56:42;5.28;;;1.13;;
75620;SDS011;64574;48.506;-2.750;2023-11-21T01:59:10;7.72;;;0.85;;
75620;SDS011;64574;48.506;-2.750;2023-11-21T02:01:37;5.28;;;0.98;;
75620;SDS011;64574;48.506;-2.750;2023-11-21T02:04:03;4.30;;;0.70;;
75620;SDS011;64574;48.506;-2.750;2023-11-21T02:06:29;9.43;;;1.25;;
75620;SDS011;64574;48.506;-2.750;2023-11-21T02:08:56;6.93;;;1.17;;
75620;SDS011;64574;48.506;-2.750;2023-11-21T02:11:21;5.60;;;1.02;;
75620;SDS011;64574;48.506;-2.750;2023-11-21T02:13:47;5.43;;;0.90;;
75620;SDS011;64574;48.506;-2.750;2023-11-21T02:16:15;10.85;;;1.55;;
75620;SDS011;64574;48.506;-2.750;2023-11-21T02:18:40;7.00;;;1.00;;
75620;SDS011;64574;48.506;-2.750;2023-11-21T02:21:06;7.40;;;0.90;;
75620;SDS011;64574;48.506;-2.750;2023-11-21T02:23:33;8.38;;;1.20;;
75620;SDS011;64574;48.506;-2.750;2023-11-21T02:25:58;5.15;;;1.00;;
75620;SDS011;64574;48.506;-2.750;2023-11-21T02:28:29;6.25;;;1.10;;
75620;SDS011;64574;48.506;-2.750;2023-11-21T02:30:55;6.28;;;2.30;;
75620;SDS011;64574;48.506;-2.750;2023-11-21T02:33:22;7.82;;;1.20;;
75620;SDS011;64574;48.506;-2.750;2023-11-21T02:35:48;6.32;;;1.30;;
75620;SDS011;64574;48.506;-2.750;2023-11-21T02:38:14;12.52;;;1.38;;
75620;SDS011;64574;48.506;-2.750;2023-11-21T02:40:40;8.90;;;1.05;;
75620;SDS011;64574;48.506;-2.750;2023-11-21T02:43:07;6.28;;;1.08;;
75620;SDS011;64574;48.506;-2.750;2023-11-21T02:45:32;5.57;;;1.23;;
75620;SDS011;64574;48.506;-2.750;2023-11-21T02:47:58;9.98;;;1.38;;
75620;SDS011;64574;48.506;-2.750;2023-11-21T02:50:24;9.55;;;1.30;;
75620;SDS011;64574;48.506;-2.750;2023-11-21T02:52:49;7.18;;;0.82;;
75620;SDS011;64574;48.506;-2.750;2023-11-21T02:55:16;7.22;;;1.45;;
75620;SDS011;64574;48.506;-2.750;2023-11-21T02:57:41;8.05;;;0.95;;
75620;SDS011;64574;48.506;-2.750;2023-11-21T03:00:07;8.07;;;1.05;;
75620;SDS011;64574;48.506;-2.750;2023-11-21T03:02:37;8.00;;;1.27;;
75620;SDS011;64574;48.506;-2.750;2023-11-21T03:05:03;12.90;;;1.90;;
75620;SDS011;64574;48.506;-2.750;2023-11-21T03:07:30;12.05;;;1.45;;
75620;SDS011;64574;48.506;-2.750;2023-11-21T03:09:56;11.38;;;1.25;;
75620;SDS011;64574;48.506;-2.750;2023-11-21T03:12:21;11.05;;;1.20;;
75620;SDS011;64574;48.506;-2.750;2023-11-21T03:14:47;9.07;;;1.10;;
75620;SDS011;64574;48.506;-2.750;2023-11-21T03:17:12;5.07;;;0.98;;
75620;SDS011;64574;48.506;-2.750;2023-11-21T03:19:41;9.70;;;1.60;;
75620;SDS011;64574;48.506;-2.750;2023-11-21T03:22:07;8.32;;;0.80;;
75620;SDS011;64574;48.506;-2.750;2023-11-21T03:24:33;4.82;;;0.90;;
75620;SDS011;64574;48.506;-2.750;2023-11-21T03:26:59;7.60;;;1.10;;
75620;SDS011;64574;48.506;-2.750;2023-11-21T03:29:25;5.20;;;1.00;;
75620;SDS011;64574;48.506;-2.750;2023-11-21T03:31:51;5.70;;;1.02;;
75620;SDS011;64574;48.506;-2.750;2023-11-21T03:34:23;10.30;;;1.27;;
75620;SDS011;64574;48.506;-2.750;2023-11-21T03:36:51;6.68;;;1.33;;
75620;SDS011;64574;48.506;-2.750;2023-11-21T03:39:17;7.68;;;1.50;;
75620;SDS011;64574;48.506;-2.750;2023-11-21T03:41:44;8.48;;;1.10;;
75620;SDS011;64574;48.506;-2.750;2023-11-21T03:44:10;6.88;;;1.02;;
75620;SDS011;64574;48.506;-2.750;2023-11-21T03:46:35;9.52;;;1.10;;
75620;SDS011;64574;48.506;-2.750;2023-11-21T03:49:01;8.75;;;1.17;;
75620;SDS011;64574;48.506;-2.750;2023-11-21T03:51:27;6.28;;;0.88;;
75620;SDS011;64574;48.506;-2.750;2023-11-21T03:53:52;5.68;;;0.85;;
75620;SDS011;64574;48.506;-2.750;2023-11-21T03:56:18;5.07;;;1.08;;
75620;SDS011;64574;48.506;-2.750;2023-11-21T03:58:46;5.20;;;0.90;;
75620;SDS011;64574;48.506;-2.750;2023-11-21T04:01:18;4.90;;;1.02;;
75620;SDS011;64574;48.506;-2.750;2023-11-21T04:03:48;5.53;;;1.05;;
75620;SDS011;64574;48.506;-2.750;2023-11-21T04:06:14;8.32;;;1.08;;
75620;SDS011;64574;48.506;-2.750;2023-11-21T04:08:39;8.27;;;1.02;;
75620;SDS011;64574;48.506;-2.750;2023-11-21T04:11:05;11.75;;;1.30;;
75620;SDS011;64574;48.506;-2.750;2023-11-21T04:18:22;7.05;;;1.10;;
75620;SDS011;64574;48.506;-2.750;2023-11-21T04:20:50;9.32;;;1.00;;
75620;SDS011;64574;48.506;-2.750;2023-11-21T04:23:16;6.53;;;1.10;;
75620;SDS011;64574;48.506;-2.750;2023-11-21T04:25:42;6.70;;;1.35;;
75620;SDS011;64574;48.506;-2.750;2023-11-21T04:28:08;6.43;;;0.95;;
75620;SDS011;64574;48.506;-2.750;2023-11-21T04:30:33;9.13;;;1.20;;
75620;SDS011;64574;48.506;-2.750;2023-11-21T04:32:59;8.80;;;1.10;;
75620;SDS011;64574;48.506;-2.750;2023-11-21T04:35:24;5.82;;;1.17;;
75620;SDS011;64574;48.506;-2.750;2023-11-21T04:37:50;9.13;;;0.95;;
75620;SDS011;64574;48.506;-2.750;2023-11-21T04:40:16;6.18;;;1.35;;
75620;SDS011;64574;48.506;-2.750;2023-11-21T04:42:42;6.60;;;1.30;;
75620;SDS011;64574;48.506;-2.750;2023-11-21T04:45:08;8.98;;;0.93;;
75620;SDS011;64574;48.506;-2.750;2023-11-21T04:47:34;9.77;;;1.02;;
75620;SDS011;64574;48.506;-2.750;2023-11-21T04:50:01;7.55;;;1.15;;
75620;SDS011;64574;48.506;-2.750;2023-11-21T04:52:28;6.43;;;1.10;;
75620;SDS011;64574;48.506;-2.750;2023-11-21T04:54:54;5.70;;;0.68;;
75620;SDS011;64574;48.506;-2.750;2023-11-21T04:57:22;5.28;;;0.93;;
75620;SDS011;64574;48.506;-2.750;2023-11-21T04:59:51;8.00;;;1.40;;
75620;SDS011;64574;48.506;-2.750;2023-11-21T05:02:16;7.32;;;1.08;;
75620;SDS011;64574;48.506;-2.750;2023-11-21T05:04:43;6.10;;;1.27;;
75620;SDS011;64574;48.506;-2.750;2023-11-21T05:07:09;7.43;;;1.00;;
75620;SDS011;64574;48.506;-2.750;2023-11-21T05:09:35;5.95;;;1.50;;
75620;SDS011;64574;48.506;-2.750;2023-11-21T05:12:01;7.85;;;1.17;;
75620;SDS011;64574;48.506;-2.750;2023-11-21T05:14:28;7.85;;;1.40;;
75620;SDS011;64574;48.506;-2.750;2023-11-21T05:16:54;9.25;;;1.73;;
75620;SDS011;64574;48.506;-2.750;2023-11-21T05:19:20;9.90;;;1.60;;
75620;SDS011;64574;48.506;-2.750;2023-11-21T05:21:46;7.78;;;1.05;;
75620;SDS011;64574;48.506;-2.750;2023-11-21T05:24:12;5.65;;;1.10;;
75620;SDS011;64574;48.506;-2.750;2023-11-21T05:26:37;6.53;;;1.48;;
75620;SDS011;64574;48.506;-2.750;2023-11-21T05:29:03;8.27;;;1.42;;
75620;SDS011;64574;48.506;-2.750;2023-11-21T05:31:29;10.73;;;1.33;;
75620;SDS011;64574;48.506;-2.750;2023-11-21T05:33:55;12.68;;;1.30;;
75620;SDS011;64574;48.506;-2.750;2023-11-21T05:36:21;9.27;;;1.25;;
75620;SDS011;64574;48.506;-2.750;2023-11-21T05:38:46;10.00;;;1.73;;
75620;SDS011;64574;48.506;-2.750;2023-11-21T05:41:12;9.33;;;1.60;;
75620;SDS011;64574;48.506;-2.750;2023-11-21T05:43:38;11.13;;;1.75;;
75620;SDS011;64574;48.506;-2.750;2023-11-21T05:46:04;10.15;;;2.05;;
75620;SDS011;64574;48.506;-2.750;2023-11-21T05:48:32;11.77;;;2.00;;
75620;SDS011;64574;48.506;-2.750;2023-11-21T05:50:57;8.90;;;1.73;;
75620;SDS011;64574;48.506;-2.750;2023-11-21T05:53:24;12.40;;;1.90;;
75620;SDS011;64574;48.506;-2.750;2023-11-21T05:55:49;11.43;;;2.10;;
75620;SDS011;64574;48.506;-2.750;2023-11-21T05:58:15;9.77;;;2.20;;
75620;SDS011;64574;48.506;-2.750;2023-11-21T06:00:41;12.17;;;2.30;;
75620;SDS011;64574;48.506;-2.750;2023-11-21T06:03:06;9.63;;;2.43;;
75620;SDS011;64574;48.506;-2.750;2023-11-21T06:05:33;13.40;;;2.50;;
75620;SDS011;64574;48.506;-2.750;2023-11-21T06:07:58;9.90;;;2.03;;
75620;SDS011;64574;48.506;-2.750;2023-11-21T06:10:24;9.65;;;1.90;;
75620;SDS011;64574;48.506;-2.750;2023-11-21T06:12:50;11.73;;;2.05;;
75620;SDS011;64574;48.506;-2.750;2023-11-21T06:15:16;10.00;;;2.05;;
75620;SDS011;64574;48.506;-2.750;2023-11-21T06:17:44;9.80;;;2.00;;
75620;SDS011;64574;48.506;-2.750;2023-11-21T06:20:14;13.23;;;2.10;;
75620;SDS011;64574;48.506;-2.750;2023-11-21T06:22:43;12.18;;;2.00;;
75620;SDS011;64574;48.506;-2.750;2023-11-21T06:25:15;10.63;;;1.98;;
75620;SDS011;64574;48.506;-2.750;2023-11-21T06:27:45;11.45;;;2.00;;
75620;SDS011;64574;48.506;-2.750;2023-11-21T06:30:12;10.57;;;2.20;;
75620;SDS011;64574;48.506;-2.750;2023-11-21T06:32:40;11.43;;;2.03;;
75620;SDS011;64574;48.506;-2.750;2023-11-21T06:35:06;11.98;;;1.98;;
75620;SDS011;64574;48.506;-2.750;2023-11-21T06:37:33;10.32;;;2.00;;
75620;SDS011;64574;48.506;-2.750;2023-11-21T06:39:59;8.40;;;1.90;;
75620;SDS011;64574;48.506;-2.750;2023-11-21T06:42:26;9.13;;;1.67;;
75620;SDS011;64574;48.506;-2.750;2023-11-21T06:44:52;11.18;;;2.05;;
75620;SDS011;64574;48.506;-2.750;2023-11-21T06:47:19;15.60;;;2.20;;
75620;SDS011;64574;48.506;-2.750;2023-11-21T06:49:49;9.63;;;1.63;;
75620;SDS011;64574;48.506;-2.750;2023-11-21T06:52:15;10.45;;;2.08;;
75620;SDS011;64574;48.506;-2.750;2023-11-21T06:54:41;7.15;;;1.40;;
75620;SDS011;64574;48.506;-2.750;2023-11-21T06:57:07;8.33;;;1.63;;
75620;SDS011;64574;48.506;-2.750;2023-11-21T06:59:33;9.10;;;1.70;;
75620;SDS011;64574;48.506;-2.750;2023-11-21T07:01:59;7.47;;;1.67;;
75620;SDS011;64574;48.506;-2.750;2023-11-21T07:04:24;10.15;;;1.80;;
75620;SDS011;64574;48.506;-2.750;2023-11-21T07:06:53;10.10;;;1.90;;
75620;SDS011;64574;48.506;-2.750;2023-11-21T07:09:19;9.75;;;1.90;;
75620;SDS011;64574;48.506;-2.750;2023-11-21T07:11:47;9.10;;;1.45;;
75620;SDS011;64574;48.506;-2.750;2023-11-21T07:14:13;8.33;;;1.73;;
75620;SDS011;64574;48.506;-2.750;2023-11-21T07:16:39;10.25;;;1.60;;
75620;SDS011;64574;48.506;-2.750;2023-11-21T07:19:05;8.90;;;1.40;;
75620;SDS011;64574;48.506;-2.750;2023-11-21T07:21:32;10.57;;;1.90;;
75620;SDS011;64574;48.506;-2.750;2023-11-21T07:23:59;8.38;;;1.52;;
75620;SDS011;64574;48.506;-2.750;2023-11-21T07:26:26;12.82;;;2.38;;
75620;SDS011;64574;48.506;-2.750;2023-11-21T07:28:52;9.35;;;2.08;;
75620;SDS011;64574;48.506;-2.750;2023-11-21T07:31:18;12.77;;;2.20;;
75620;SDS011;64574;48.506;-2.750;2023-11-21T07:33:45;10.40;;;1.93;;
75620;SDS011;64574;48.506;-2.750;2023-11-21T07:36:14;9.63;;;2.00;;
75620;SDS011;64574;48.506;-2.750;2023-11-21T07:38:41;12.25;;;2.08;;
75620;SDS011;64574;48.506;-2.750;2023-11-21T07:41:07;10.83;;;2.50;;
75620;SDS011;64574;48.506;-2.750;2023-11-21T07:43:34;12.85;;;2.40;;
75620;SDS011;64574;48.506;-2.750;2023-11-21T07:46:03;10.05;;;2.75;;
75620;SDS011;64574;48.506;-2.750;2023-11-21T07:48:30;9.10;;;2.25;;
75620;SDS011;64574;48.506;-2.750;2023-11-21T07:50:56;10.33;;;2.17;;
75620;SDS011;64574;48.506;-2.750;2023-11-21T07:53:23;9.97;;;2.17;;
75620;SDS011;64574;48.506;-2.750;2023-11-21T07:55:50;10.70;;;1.73;;
75620;SDS011;64574;48.506;-2.750;2023-11-21T07:58:16;8.90;;;1.90;;
75620;SDS011;64574;48.506;-2.750;2023-11-21T08:00:41;6.83;;;1.50;;
75620;SDS011;64574;48.506;-2.750;2023-11-21T08:03:07;9.25;;;2.03;;
75620;SDS011;64574;48.506;-2.750;2023-11-21T08:05:33;8.17;;;1.60;;
75620;SDS011;64574;48.506;-2.750;2023-11-21T08:07:58;8.77;;;1.80;;
75620;SDS011;64574;48.506;-2.750;2023-11-21T08:10:24;9.52;;;1.80;;
75620;SDS011;64574;48.506;-2.750;2023-11-21T08:12:50;8.60;;;1.63;;
75620;SDS011;64574;48.506;-2.750;2023-11-21T08:15:16;5.70;;;1.15;;
75620;SDS011;64574;48.506;-2.750;2023-11-21T08:17:42;6.37;;;1.30;;
75620;SDS011;64574;48.506;-2.750;2023-11-21T08:20:07;6.38;;;1.30;;
75620;SDS011;64574;48.506;-2.750;2023-11-21T08:22:35;7.22;;;1.17;;
75620;SDS011;64574;48.506;-2.750;2023-11-21T08:25:01;5.78;;;0.90;;
75620;SDS011;64574;48.506;-2.750;2023-11-21T08:27:29;4.53;;;0.90;;
75620;SDS011;64574;48.506;-2.750;2023-11-21T08:29:55;5.47;;;0.90;;
75620;SDS011;64574;48.506;-2.750;2023-11-21T08:32:22;4.70;;;0.80;;
75620;SDS011;64574;48.506;-2.750;2023-11-21T08:34:47;4.87;;;0.97;;
75620;SDS011;64574;48.506;-2.750;2023-11-21T08:37:16;4.90;;;0.98;;
75620;SDS011;64574;48.506;-2.750;2023-11-21T08:39:43;7.13;;;1.02;;
75620;SDS011;64574;48.506;-2.750;2023-11-21T08:42:09;3.13;;;0.65;;
75620;SDS011;64574;48.506;-2.750;2023-11-21T08:44:35;3.78;;;0.70;;
75620;SDS011;64574;48.506;-2.750;2023-11-21T08:47:01;4.93;;;1.10;;
75620;SDS011;64574;48.506;-2.750;2023-11-21T08:49:27;5.30;;;0.90;;
75620;SDS011;64574;48.506;-2.750;2023-11-21T08:51:54;5.68;;;0.93;;
75620;SDS011;64574;48.506;-2.750;2023-11-21T08:54:24;7.45;;;1.23;;
75620;SDS011;64574;48.506;-2.750;2023-11-21T08:56:51;7.22;;;1.00;;
75620;SDS011;64574;48.506;-2.750;2023-11-21T08:59:18;5.53;;;1.10;;
75620;SDS011;64574;48.506;-2.750;2023-11-21T09:01:45;5.82;;;1.10;;
75620;SDS011;64574;48.506;-2.750;2023-11-21T09:04:11;5.10;;;0.90;;
75620;SDS011;64574;48.506;-2.750;2023-11-21T09:06:37;5.10;;;0.82;;
75620;SDS011;64574;48.506;-2.750;2023-11-21T09:09:04;5.53;;;1.10;;
75620;SDS011;64574;48.506;-2.750;2023-11-21T09:11:31;6.40;;;1.10;;
75620;SDS011;64574;48.506;-2.750;2023-11-21T09:13:59;4.85;;;1.10;;
75620;SDS011;64574;48.506;-2.750;2023-11-21T09:16:25;4.30;;;1.10;;
75620;SDS011;64574;48.506;-2.750;2023-11-21T09:18:50;5.85;;;1.00;;
75620;SDS011;64574;48.506;-2.750;2023-11-21T09:21:16;5.47;;;1.00;;
75620;SDS011;64574;48.506;-2.750;2023-11-21T09:23:44;4.53;;;1.03;;
75620;SDS011;64574;48.506;-2.750;2023-11-21T09:26:10;7.57;;;1.40;;
75620;SDS011;64574;48.506;-2.750;2023-11-21T09:28:35;4.97;;;1.08;;
75620;SDS011;64574;48.506;-2.750;2023-11-21T09:31:06;7.57;;;1.30;;
75620;SDS011;64574;48.506;-2.750;2023-11-21T09:33:34;6.40;;;1.17;;
75620;SDS011;64574;48.506;-2.750;2023-11-21T09:35:59;6.45;;;1.20;;
75620;SDS011;64574;48.506;-2.750;2023-11-21T09:38:26;6.82;;;1.10;;
75620;SDS011;64574;48.506;-2.750;2023-11-21T09:40:53;4.85;;;1.10;;
75620;SDS011;64574;48.506;-2.750;2023-11-21T09:43:20;7.50;;;1.70;;
75620;SDS011;64574;48.506;-2.750;2023-11-21T09:45:48;9.15;;;1.58;;
75620;SDS011;64574;48.506;-2.750;2023-11-21T09:48:21;7.53;;;1.42;;
75620;SDS011;64574;48.506;-2.750;2023-11-21T09:50:49;5.10;;;1.42;;
75620;SDS011;64574;48.506;-2.750;2023-11-21T09:53:19;7.78;;;1.50;;
75620;SDS011;64574;48.506;-2.750;2023-11-21T09:55:47;5.90;;;1.40;;
75620;SDS011;64574;48.506;-2.750;2023-11-21T09:58:16;7.38;;;1.52;;
75620;SDS011;64574;48.506;-2.750;2023-11-21T10:00:46;8.20;;;1.55;;
75620;SDS011;64574;48.506;-2.750;2023-11-21T10:03:12;6.57;;;1.50;;
75620;SDS011;64574;48.506;-2.750;2023-11-21T10:05:39;5.57;;;1.58;;
75620;SDS011;64574;48.506;-2.750;2023-11-21T10:08:07;3.22;;;1.00;;
75620;SDS011;64574;48.506;-2.750;2023-11-21T10:10:35;3.75;;;0.98;;
75620;SDS011;64574;48.506;-2.750;2023-11-21T10:13:09;3.73;;;1.17;;
75620;SDS011;64574;48.506;-2.750;2023-11-21T10:15:37;10.63;;;2.60;;
75620;SDS011;64574;48.506;-2.750;2023-11-21T10:18:03;5.57;;;1.50;;
75620;SDS011;64574;48.506;-2.750;2023-11-21T10:20:34;7.13;;;1.48;;
75620;SDS011;64574;48.506;-2.750;2023-11-21T10:23:00;7.57;;;1.50;;
75620;SDS011;64574;48.506;-2.750;2023-11-21T10:25:29;7.97;;;1.73;;
75620;SDS011;64574;48.506;-2.750;2023-11-21T10:27:59;6.13;;;1.48;;
75620;SDS011;64574;48.506;-2.750;2023-11-21T10:30:33;5.20;;;1.30;;
75620;SDS011;64574;48.506;-2.750;2023-11-21T10:32:59;6.15;;;1.50;;
75620;SDS011;64574;48.506;-2.750;2023-11-21T10:35:37;4.47;;;1.27;;
75620;SDS011;64574;48.506;-2.750;2023-11-21T10:38:16;6.10;;;1.30;;
75620;SDS011;64574;48.506;-2.750;2023-11-21T10:40:43;9.90;;;1.35;;
75620;SDS011;64574;48.506;-2.750;2023-11-21T10:43:09;5.57;;;1.30;;
75620;SDS011;64574;48.506;-2.750;2023-11-21T10:45:39;6.63;;;1.33;;
75620;SDS011;64574;48.506;-2.750;2023-11-21T10:48:09;4.03;;;0.90;;
75620;SDS011;64574;48.506;-2.750;2023-11-21T10:50:36;5.50;;;1.10;;
75620;SDS011;64574;48.506;-2.750;2023-11-21T10:53:03;3.88;;;0.80;;
75620;SDS011;64574;48.506;-2.750;2023-11-21T10:55:30;4.95;;;0.90;;
75620;SDS011;64574;48.506;-2.750;2023-11-21T10:57:58;4.47;;;0.90;;
75620;SDS011;64574;48.506;-2.750;2023-11-21T11:00:27;5.25;;;1.00;;
75620;SDS011;64574;48.506;-2.750;2023-11-21T11:02:53;5.97;;;1.20;;
75620;SDS011;64574;48.506;-2.750;2023-11-21T11:05:20;6.75;;;1.50;;
75620;SDS011;64574;48.506;-2.750;2023-11-21T11:07:50;7.60;;;1.60;;
75620;SDS011;64574;48.506;-2.750;2023-11-21T11:10:25;7.73;;;1.60;;
75620;SDS011;64574;48.506;-2.750;2023-11-21T11:12:52;7.40;;;1.58;;
75620;SDS011;64574;48.506;-2.750;2023-11-21T11:15:22;9.65;;;1.90;;
75620;SDS011;64574;48.506;-2.750;2023-11-21T11:17:48;5.85;;;1.48;;
75620;SDS011;64574;48.506;-2.750;2023-11-21T11:20:14;8.10;;;1.80;;
75620;SDS011;64574;48.506;-2.750;2023-11-21T11:28:27;7.07;;;1.73;;
75620;SDS011;64574;48.506;-2.750;2023-11-21T11:31:21;10.20;;;1.98;;
75620;SDS011;64574;48.506;-2.750;2023-11-21T11:34:19;7.55;;;1.83;;
75620;SDS011;64574;48.506;-2.750;2023-11-21T11:36:48;11.07;;;2.17;;
75620;SDS011;64574;48.506;-2.750;2023-11-21T11:39:27;6.70;;;1.63;;
75620;SDS011;64574;48.506;-2.750;2023-11-21T11:42:01;5.67;;;1.40;;
75620;SDS011;64574;48.506;-2.750;2023-11-21T11:47:14;8.52;;;1.80;;
75620;SDS011;64574;48.506;-2.750;2023-11-21T11:49:58;9.13;;;1.70;;
75620;SDS011;64574;48.506;-2.750;2023-11-21T11:52:39;9.18;;;1.60;;
75620;SDS011;64574;48.506;-2.750;2023-11-21T11:55:14;9.18;;;2.05;;
75620;SDS011;64574;48.506;-2.750;2023-11-21T11:57:44;9.32;;;1.88;;
75620;SDS011;64574;48.506;-2.750;2023-11-21T12:00:19;8.57;;;1.77;;
75620;SDS011;64574;48.506;-2.750;2023-11-21T12:02:50;6.50;;;1.40;;
75620;SDS011;64574;48.506;-2.750;2023-11-21T14:12:32;3.13;;;0.60;;
75620;SDS011;64574;48.506;-2.750;2023-11-21T14:15:01;4.38;;;0.73;;
75620;SDS011;64574;48.506;-2.750;2023-11-21T14:17:30;4.10;;;0.80;;
75620;SDS011;64574;48.506;-2.750;2023-11-21T14:19:55;6.10;;;1.10;;
75620;SDS011;64574;48.506;-2.750;2023-11-21T14:22:21;5.28;;;1.08;;
75620;SDS011;64574;48.506;-2.750;2023-11-21T14:24:47;4.25;;;0.80;;
75620;SDS011;64574;48.506;-2.750;2023-11-21T14:27:15;4.03;;;0.90;;
75620;SDS011;64574;48.506;-2.750;2023-11-21T14:29:41;4.53;;;0.95;;
75620;SDS011;64574;48.506;-2.750;2023-11-21T14:32:09;3.20;;;1.10;;
75620;SDS011;64574;48.506;-2.750;2023-11-21T14:34:35;6.97;;;1.15;;
75620;SDS011;64574;48.506;-2.750;2023-11-21T14:37:01;3.75;;;1.00;;
75620;SDS011;64574;48.506;-2.750;2023-11-21T14:39:28;4.80;;;1.02;;
75620;SDS011;64574;48.506;-2.750;2023-11-21T14:41:54;4.03;;;1.15;;
75620;SDS011;64574;48.506;-2.750;2023-11-21T14:44:24;4.65;;;0.95;;
75620;SDS011;64574;48.506;-2.750;2023-11-21T14:46:53;4.97;;;0.70;;
75620;SDS011;64574;48.506;-2.750;2023-11-21T14:49:20;5.13;;;0.77;;
75620;SDS011;64574;48.506;-2.750;2023-11-21T14:51:47;5.50;;;0.90;;
75620;SDS011;64574;48.506;-2.750;2023-11-21T14:54:31;6.57;;;0.80;;
75620;SDS011;64574;48.506;-2.750;2023-11-21T14:57:10;4.00;;;0.63;;
75620;SDS011;64574;48.506;-2.750;2023-11-21T14:59:45;6.90;;;1.15;;
75620;SDS011;64574;48.506;-2.750;2023-11-21T15:02:15;3.38;;;0.90;;
75620;SDS011;64574;48.506;-2.750;2023-11-21T15:04:46;2.97;;;1.00;;
75620;SDS011;64574;48.506;-2.750;2023-11-21T15:07:13;3.17;;;0.90;;
75620;SDS011;64574;48.506;-2.750;2023-11-21T15:09:39;3.53;;;1.00;;
75620;SDS011;64574;48.506;-2.750;2023-11-21T15:12:08;3.80;;;0.60;;
75620;SDS011;64574;48.506;-2.750;2023-11-21T15:14:45;6.10;;;1.00;;
75620;SDS011;64574;48.506;-2.750;2023-11-21T15:17:13;4.18;;;1.00;;
75620;SDS011;64574;48.506;-2.750;2023-11-21T15:19:51;4.53;;;1.15;;
75620;SDS011;64574;48.506;-2.750;2023-11-21T15:22:18;4.97;;;2.03;;
75620;SDS011;64574;48.506;-2.750;2023-11-21T15:24:43;4.82;;;1.80;;
75620;SDS011;64574;48.506;-2.750;2023-11-21T15:27:12;5.40;;;0.80;;
75620;SDS011;64574;48.506;-2.750;2023-11-21T15:29:38;2.28;;;0.98;;
75620;SDS011;64574;48.506;-2.750;2023-11-21T15:32:08;6.40;;;1.13;;
75620;SDS011;64574;48.506;-2.750;2023-11-21T15:34:34;3.97;;;1.10;;
75620;SDS011;64574;48.506;-2.750;2023-11-21T15:37:01;2.58;;;0.80;;
75620;SDS011;64574;48.506;-2.750;2023-11-21T15:39:28;3.03;;;0.80;;
75620;SDS011;64574;48.506;-2.750;2023-11-21T15:41:58;2.28;;;0.70;;
75620;SDS011;64574;48.506;-2.750;2023-11-21T15:44:25;2.92;;;0.70;;
75620;SDS011;64574;48.506;-2.750;2023-11-21T15:46:51;3.22;;;0.50;;
75620;SDS011;64574;48.506;-2.750;2023-11-21T16:13:38;3.08;;;0.60;;
75620;SDS011;64574;48.506;-2.750;2023-11-21T16:16:03;2.55;;;0.70;;
75620;SDS011;64574;48.506;-2.750;2023-11-21T16:18:30;4.75;;;1.05;;
75620;SDS011;64574;48.506;-2.750;2023-11-21T16:20:56;2.22;;;0.40;;
75620;SDS011;64574;48.506;-2.750;2023-11-21T16:23:21;4.35;;;0.95;;
75620;SDS011;64574;48.506;-2.750;2023-11-21T16:25:47;3.00;;;0.65;;
75620;SDS011;64574;48.506;-2.750;2023-11-21T16:28:19;3.38;;;0.40;;
75620;SDS011;64574;48.506;-2.750;2023-11-21T16:30:50;2.33;;;0.70;;
75620;SDS011;64574;48.506;-2.750;2023-11-21T16:33:15;1.80;;;0.50;;
75620;SDS011;64574;48.506;-2.750;2023-11-21T16:35:41;5.05;;;0.80;;
75620;SDS011;64574;48.506;-2.750;2023-11-21T16:38:07;2.78;;;0.93;;
75620;SDS011;64574;48.506;-2.750;2023-11-21T16:40:33;3.80;;;0.90;;
75620;SDS011;64574;48.506;-2.750;2023-11-21T16:42:59;4.40;;;1.20;;
75620;SDS011;64574;48.506;-2.750;2023-11-21T16:45:24;4.43;;;1.30;;
75620;SDS011;64574;48.506;-2.750;2023-11-21T16:47:50;4.10;;;1.10;;
75620;SDS011;64574;48.506;-2.750;2023-11-21T16:50:16;3.53;;;1.10;;
75620;SDS011;64574;48.506;-2.750;2023-11-21T16:52:41;4.63;;;1.60;;
75620;SDS011;64574;48.506;-2.750;2023-11-21T16:55:08;3.63;;;0.90;;
75620;SDS011;64574;48.506;-2.750;2023-11-21T16:57:38;5.10;;;1.90;;
75620;SDS011;64574;48.506;-2.750;2023-11-21T17:00:04;3.78;;;1.20;;
75620;SDS011;64574;48.506;-2.750;2023-11-21T17:02:36;4.97;;;1.25;;
75620;SDS011;64574;48.506;-2.750;2023-11-21T17:05:02;4.85;;;1.00;;
75620;SDS011;64574;48.506;-2.750;2023-11-21T17:07:30;5.32;;;1.10;;
75620;SDS011;64574;48.506;-2.750;2023-11-21T17:09:56;5.60;;;1.40;;
75620;SDS011;64574;48.506;-2.750;2023-11-21T17:12:22;6.32;;;1.50;;
75620;SDS011;64574;48.506;-2.750;2023-11-21T17:14:47;5.80;;;1.70;;
75620;SDS011;64574;48.506;-2.750;2023-11-21T17:17:14;7.55;;;1.40;;
75620;SDS011;64574;48.506;-2.750;2023-11-21T17:19:40;6.27;;;1.40;;